createdAt,value
2016-06-17T00:00:01.916Z,20.94
2016-06-17T00:01:01.936Z,20.83
2016-06-17T00:02:02.064Z,20.83
2016-06-17T00:03:02.004Z,20.88
2016-06-17T00:04:01.930Z,20.79
2016-06-17T00:05:01.950Z,20.81
2016-06-17T00:06:02.015Z,20.76
2016-06-17T00:07:02.065Z,20.79
2016-06-17T00:08:01.929Z,20.83
2016-06-17T00:09:01.994Z,20.79
2016-06-17T00:10:01.967Z,20.81
2016-06-17T00:11:01.923Z,20.81
2016-06-17T00:12:01.911Z,20.88
2016-06-17T00:13:02.039Z,20.81
2016-06-17T00:14:01.980Z,20.9
2016-06-17T00:15:01.999Z,20.9
2016-06-17T00:16:02.019Z,20.81
2016-06-17T00:17:01.991Z,20.86
2016-06-17T00:18:02.056Z,20.76
2016-06-17T00:19:01.935Z,20.82
2016-06-17T00:20:01.985Z,20.85
2016-06-17T00:21:01.974Z,20.78
2016-06-17T00:22:02.008Z,20.76
2016-06-17T00:23:02.012Z,20.82
2016-06-17T00:24:01.999Z,20.74
2016-06-17T00:25:01.909Z,20.68
2016-06-17T00:26:01.991Z,20.75
2016-06-17T00:27:02.026Z,20.81
2016-06-17T00:28:02.013Z,20.76
2016-06-17T00:29:02.094Z,20.74
2016-06-17T00:30:02.005Z,20.79
2016-06-17T00:31:02.211Z,20.75
2016-06-17T00:32:02.074Z,20.76
2016-06-17T00:33:02.030Z,20.71
2016-06-17T00:34:02.112Z,20.75
2016-06-17T00:35:02.068Z,20.81
2016-06-17T00:36:02.026Z,20.67
2016-06-17T00:37:01.950Z,20.74
2016-06-17T00:38:02.017Z,20.76
2016-06-17T00:39:02.098Z,20.79
2016-06-17T00:40:02.007Z,20.71
2016-06-17T00:41:02.043Z,20.67
2016-06-17T00:42:02.093Z,20.72
2016-06-17T00:43:02.096Z,20.68
2016-06-17T00:44:02.162Z,20.76
2016-06-17T00:45:02.165Z,20.78
2016-06-17T00:46:02.060Z,20.72
2016-06-17T00:47:02.345Z,20.78
2016-06-17T00:48:02.145Z,20.72
2016-06-17T00:49:02.132Z,20.75
2016-06-17T00:50:02.026Z,20.67
2016-06-17T00:51:02.091Z,20.68
2016-06-17T00:52:02.044Z,20.79
2016-06-17T00:53:02.144Z,20.67
2016-06-17T00:54:02.019Z,20.71
2016-06-17T00:55:02.147Z,20.81
2016-06-17T00:56:02.072Z,20.72
2016-06-17T00:57:02.122Z,20.63
2016-06-17T00:58:02.048Z,20.68
2016-06-17T00:59:02.082Z,20.76
2016-06-17T01:00:02.180Z,20.78
2016-06-17T01:01:02.105Z,20.68
2016-06-17T01:02:02.029Z,20.74
2016-06-17T01:03:02.127Z,20.72
2016-06-17T01:04:02.068Z,20.72
2016-06-17T01:05:02.055Z,20.63
2016-06-17T01:06:02.043Z,20.64
2016-06-17T01:07:02.219Z,20.67
2016-06-17T01:08:02.097Z,20.71
2016-06-17T01:09:02.195Z,20.67
2016-06-17T01:10:02.229Z,20.67
2016-06-17T01:11:02.154Z,20.67
2016-06-17T01:12:02.127Z,20.75
2016-06-17T01:13:02.099Z,20.66
2016-06-17T01:14:02.102Z,20.68
2016-06-17T01:15:02.059Z,20.67
2016-06-17T01:16:02.172Z,20.63
2016-06-17T01:17:02.269Z,20.63
2016-06-17T01:18:02.084Z,20.67
2016-06-17T01:19:02.151Z,20.68
2016-06-17T01:20:02.154Z,20.66
2016-06-17T01:21:02.205Z,20.64
2016-06-17T01:22:02.115Z,20.66
2016-06-17T01:23:02.164Z,20.63
2016-06-17T01:24:02.138Z,20.64
2016-06-17T01:25:02.171Z,20.63
2016-06-17T01:26:02.159Z,20.61
2016-06-17T01:27:02.195Z,20.71
2016-06-17T01:28:02.151Z,20.61
2016-06-17T01:29:02.122Z,20.66
2016-06-17T01:30:02.220Z,20.66
2016-06-17T01:31:02.114Z,20.64
2016-06-17T01:32:02.196Z,20.66
2016-06-17T01:33:02.169Z,20.66
2016-06-17T01:34:02.139Z,20.63
2016-06-17T01:35:02.159Z,20.6
2016-06-17T01:36:02.179Z,20.66
2016-06-17T01:37:02.136Z,20.67
2016-06-17T01:38:02.139Z,20.68
2016-06-17T01:39:02.143Z,20.71
2016-06-17T01:40:02.114Z,20.71
2016-06-17T01:41:02.180Z,20.6
2016-06-17T01:42:02.215Z,20.67
2016-06-17T01:43:02.218Z,20.64
2016-06-17T01:44:02.238Z,20.61
2016-06-17T01:45:02.100Z,20.6
2016-06-17T01:46:02.166Z,20.67
2016-06-17T01:47:02.170Z,20.66
2016-06-17T01:48:02.189Z,20.66
2016-06-17T01:49:02.145Z,20.63
2016-06-17T01:50:02.195Z,20.63
2016-06-17T01:51:02.199Z,20.74
2016-06-17T01:52:02.124Z,20.66
2016-06-17T01:53:02.128Z,20.63
2016-06-17T01:54:02.241Z,20.63
2016-06-17T01:55:02.306Z,20.63
2016-06-17T01:56:02.154Z,20.72
2016-06-17T01:57:02.269Z,20.63
2016-06-17T01:58:02.227Z,20.64
2016-06-17T01:59:02.263Z,20.72
2016-06-17T02:00:02.221Z,20.68
2016-06-17T02:01:02.148Z,20.68
2016-06-17T02:02:02.292Z,20.68
2016-06-17T02:03:02.203Z,20.67
2016-06-17T02:04:02.207Z,20.67
2016-06-17T02:05:02.256Z,20.68
2016-06-17T02:06:02.229Z,20.68
2016-06-17T02:07:02.280Z,20.61
2016-06-17T02:08:02.190Z,20.66
2016-06-17T02:09:02.210Z,20.72
2016-06-17T02:10:02.260Z,20.6
2016-06-17T02:11:02.186Z,20.64
2016-06-17T02:12:02.237Z,20.66
2016-06-17T02:13:02.194Z,20.66
2016-06-17T02:14:02.211Z,20.64
2016-06-17T02:15:02.262Z,20.71
2016-06-17T02:16:02.328Z,20.64
2016-06-17T02:17:02.332Z,20.64
2016-06-17T02:18:02.304Z,20.63
2016-06-17T02:19:02.292Z,20.72
2016-06-17T02:20:02.217Z,20.61
2016-06-17T02:21:02.221Z,20.63
2016-06-17T02:22:02.365Z,20.66
2016-06-17T02:23:02.211Z,20.64
2016-06-17T02:24:02.184Z,20.57
2016-06-17T02:25:02.282Z,20.6
2016-06-17T02:26:02.285Z,20.57
2016-06-17T02:27:02.210Z,20.58
2016-06-17T02:28:02.324Z,20.6
2016-06-17T02:29:02.310Z,20.6
2016-06-17T02:30:02.330Z,20.57
2016-06-17T02:31:02.271Z,20.57
2016-06-17T02:32:02.337Z,20.6
2016-06-17T02:33:02.356Z,20.67
2016-06-17T02:34:02.296Z,20.57
2016-06-17T02:35:02.253Z,20.54
2016-06-17T02:36:02.320Z,20.61
2016-06-17T02:37:02.292Z,20.6
2016-06-17T02:38:02.294Z,20.63
2016-06-17T02:39:02.361Z,20.66
2016-06-17T02:40:02.302Z,20.67
2016-06-17T02:41:02.399Z,20.63
2016-06-17T02:42:02.294Z,20.57
2016-06-17T02:43:02.250Z,20.57
2016-06-17T02:44:02.347Z,20.51
2016-06-17T02:45:02.304Z,20.61
2016-06-17T02:46:02.339Z,20.58
2016-06-17T02:47:02.358Z,20.54
2016-06-17T02:48:02.314Z,20.6
2016-06-17T02:49:02.365Z,20.53
2016-06-17T02:50:02.352Z,20.49
2016-06-17T02:51:02.403Z,20.49
2016-06-17T02:52:02.406Z,20.41
2016-06-17T02:53:02.346Z,20.41
2016-06-17T02:54:02.335Z,20.4
2016-06-17T02:55:02.323Z,20.44
2016-06-17T02:56:02.279Z,20.41
2016-06-17T02:57:02.298Z,20.41
2016-06-17T02:58:02.364Z,20.34
2016-06-17T02:59:02.336Z,20.25
2016-06-17T03:00:02.371Z,20.27
2016-06-17T03:01:02.437Z,20.27
2016-06-17T03:02:02.363Z,20.27
2016-06-17T03:03:02.366Z,20.23
2016-06-17T03:04:02.354Z,20.2
2016-06-17T03:05:02.341Z,20.23
2016-06-17T03:06:02.361Z,20.22
2016-06-17T03:07:02.333Z,20.18
2016-06-17T03:08:02.351Z,20.2
2016-06-17T03:09:02.355Z,20.22
2016-06-17T03:10:02.468Z,20.26
2016-06-17T03:11:02.362Z,20.19
2016-06-17T03:12:02.412Z,20.15
2016-06-17T03:13:02.401Z,20.27
2016-06-17T03:14:02.419Z,20.16
2016-06-17T03:15:02.423Z,20.2
2016-06-17T03:16:02.395Z,20.12
2016-06-17T03:17:02.446Z,20.16
2016-06-17T03:18:02.386Z,20.12
2016-06-17T03:19:02.405Z,20.11
2016-06-17T03:20:02.409Z,20.11
2016-06-17T03:21:02.412Z,20.26
2016-06-17T03:22:02.369Z,20.18
2016-06-17T03:23:02.436Z,20.25
2016-06-17T03:24:02.454Z,20.25
2016-06-17T03:25:02.395Z,20.23
2016-06-17T03:26:02.414Z,20.23
2016-06-17T03:27:02.480Z,20.26
2016-06-17T03:28:02.484Z,20.26
2016-06-17T03:29:02.503Z,20.32
2016-06-17T03:30:02.491Z,20.27
2016-06-17T03:31:02.416Z,20.34
2016-06-17T03:32:02.450Z,20.32
2016-06-17T03:33:02.501Z,20.32
2016-06-17T03:34:02.520Z,20.27
2016-06-17T03:35:02.460Z,20.27
2016-06-17T03:36:02.512Z,20.26
2016-06-17T03:37:02.467Z,20.29
2016-06-17T03:38:02.565Z,20.3
2016-06-17T03:39:02.522Z,20.34
2016-06-17T03:40:02.573Z,20.34
2016-06-17T03:41:02.434Z,20.4
2016-06-17T03:42:02.485Z,20.32
2016-06-17T03:43:02.426Z,20.32
2016-06-17T03:44:02.398Z,20.29
2016-06-17T03:45:02.480Z,20.26
2016-06-17T03:46:02.483Z,20.26
2016-06-17T03:47:02.456Z,20.15
2016-06-17T03:48:02.537Z,20.08
2016-06-17T03:49:02.510Z,20.04
2016-06-17T03:50:02.575Z,20.12
2016-06-17T03:51:02.500Z,20.05
2016-06-17T03:52:02.504Z,20
2016-06-17T03:53:02.539Z,20.02
2016-06-17T03:54:02.480Z,19.89
2016-06-17T03:55:02.436Z,19.87
2016-06-17T03:56:02.455Z,20.02
2016-06-17T03:57:02.568Z,20.05
2016-06-17T03:58:02.400Z,19.98
2016-06-17T03:59:02.419Z,19.97
2016-06-17T04:00:02.422Z,19.9
2016-06-17T04:01:02.520Z,19.89
2016-06-17T04:02:02.429Z,19.82
2016-06-17T04:03:02.558Z,19.93
2016-06-17T04:04:02.561Z,19.89
2016-06-17T04:05:02.533Z,19.82
2016-06-17T04:06:02.537Z,19.82
2016-06-17T04:07:02.541Z,19.79
2016-06-17T04:08:02.575Z,19.72
2016-06-17T04:09:02.578Z,19.71
2016-06-17T04:10:02.582Z,19.74
2016-06-17T04:11:02.476Z,19.64
2016-06-17T04:12:02.589Z,19.74
2016-06-17T04:13:02.626Z,19.63
2016-06-17T04:14:02.586Z,19.64
2016-06-17T04:15:02.578Z,19.6
2016-06-17T04:16:02.569Z,19.63
2016-06-17T04:17:02.591Z,19.65
2016-06-17T04:18:02.472Z,19.7
2016-06-17T04:19:02.554Z,19.7
2016-06-17T04:20:02.528Z,19.71
2016-06-17T04:21:02.563Z,19.65
2016-06-17T04:22:02.646Z,19.68
2016-06-17T04:23:02.604Z,19.67
2016-06-17T04:24:02.623Z,19.63
2016-06-17T04:25:02.564Z,19.7
2016-06-17T04:26:02.584Z,19.63
2016-06-17T04:27:02.618Z,19.61
2016-06-17T04:28:02.560Z,19.68
2016-06-17T04:29:02.579Z,19.68
2016-06-17T04:30:02.583Z,19.68
2016-06-17T04:31:02.572Z,19.78
2016-06-17T04:32:02.622Z,19.67
2016-06-17T04:33:02.673Z,19.68
2016-06-17T04:34:02.535Z,19.72
2016-06-17T04:35:02.617Z,19.61
2016-06-17T04:36:02.590Z,19.7
2016-06-17T04:37:02.594Z,19.65
2016-06-17T04:38:02.627Z,19.7
2016-06-17T04:39:02.615Z,19.67
2016-06-17T04:40:02.603Z,19.75
2016-06-17T04:41:02.638Z,19.71
2016-06-17T04:42:02.626Z,19.74
2016-06-17T04:43:02.675Z,19.78
2016-06-17T04:44:02.617Z,19.75
2016-06-17T04:45:02.760Z,19.74
2016-06-17T04:46:02.578Z,19.82
2016-06-17T04:47:02.612Z,19.82
2016-06-17T04:48:02.616Z,19.86
2016-06-17T04:49:02.727Z,19.85
2016-06-17T04:50:02.716Z,19.72
2016-06-17T04:51:02.672Z,19.85
2016-06-17T04:52:02.676Z,19.8
2016-06-17T04:53:02.602Z,19.85
2016-06-17T04:54:02.574Z,19.89
2016-06-17T04:55:02.608Z,19.93
2016-06-17T04:56:02.612Z,19.97
2016-06-17T04:57:02.663Z,19.92
2016-06-17T04:58:02.775Z,19.93
2016-06-17T04:59:02.701Z,19.97
2016-06-17T05:00:02.672Z,19.92
2016-06-17T05:01:02.769Z,19.92
2016-06-17T05:02:02.852Z,19.92
2016-06-17T05:03:02.683Z,19.89
2016-06-17T05:04:02.718Z,20.05
2016-06-17T05:05:02.627Z,20.01
2016-06-17T05:06:02.615Z,20.02
2016-06-17T05:07:02.806Z,20.01
2016-06-17T05:08:02.701Z,19.98
2016-06-17T05:09:02.719Z,19.98
2016-06-17T05:10:02.661Z,19.97
2016-06-17T05:11:02.788Z,20.1
2016-06-17T05:12:02.714Z,20.07
2016-06-17T05:13:02.686Z,20.02
2016-06-17T05:14:02.814Z,20.07
2016-06-17T05:15:02.740Z,20.04
2016-06-17T05:16:02.821Z,20
2016-06-17T05:17:02.762Z,20.15
2016-06-17T05:18:02.766Z,20.01
2016-06-17T05:19:02.675Z,20.07
2016-06-17T05:20:02.710Z,20.04
2016-06-17T05:21:02.777Z,20.12
2016-06-17T05:22:02.623Z,20.08
2016-06-17T05:23:02.705Z,20.11
2016-06-17T05:24:02.755Z,20.11
2016-06-17T05:25:02.727Z,20.15
2016-06-17T05:26:02.731Z,20.11
2016-06-17T05:27:02.703Z,20.15
2016-06-17T05:28:02.801Z,20.08
2016-06-17T05:29:02.679Z,20.1
2016-06-17T05:30:02.730Z,20.15
2016-06-17T05:31:02.748Z,20.12
2016-06-17T05:32:02.706Z,20.11
2016-06-17T05:33:02.709Z,20.12
2016-06-17T05:34:02.758Z,20.12
2016-06-17T05:35:02.778Z,20.1
2016-06-17T05:36:02.750Z,20.2
2016-06-17T05:37:02.723Z,20.19
2016-06-17T05:38:02.851Z,20.2
2016-06-17T05:39:02.776Z,20.15
2016-06-17T05:40:02.748Z,20.22
2016-06-17T05:41:02.767Z,20.16
2016-06-17T05:42:02.771Z,20.18
2016-06-17T05:43:02.868Z,20.18
2016-06-17T05:44:02.825Z,20.16
2016-06-17T05:45:02.703Z,20.15
2016-06-17T05:46:02.785Z,20.16
2016-06-17T05:47:02.835Z,20.1
2016-06-17T05:48:02.792Z,20.08
2016-06-17T05:49:02.842Z,20.07
2016-06-17T05:50:02.799Z,20.15
2016-06-17T05:51:02.880Z,20.1
2016-06-17T05:52:02.805Z,20.04
2016-06-17T05:53:02.824Z,20.15
2016-06-17T05:54:02.843Z,20.11
2016-06-17T05:55:02.831Z,20.12
2016-06-17T05:56:02.819Z,20.12
2016-06-17T05:57:02.854Z,20.1
2016-06-17T05:58:02.857Z,20.02
2016-06-17T05:59:02.766Z,20.11
2016-06-17T06:00:02.803Z,20.1
2016-06-17T06:01:02.867Z,20.12
2016-06-17T06:02:02.855Z,20.16
2016-06-17T06:03:02.859Z,20.15
2016-06-17T06:04:02.862Z,20.16
2016-06-17T06:05:02.819Z,20.23
2016-06-17T06:06:02.853Z,20.22
2016-06-17T06:07:02.826Z,20.22
2016-06-17T06:08:02.830Z,20.2
2016-06-17T06:09:02.755Z,20.18
2016-06-17T06:10:02.867Z,20.18
2016-06-17T06:11:02.886Z,20.18
2016-06-17T06:12:02.952Z,20.23
2016-06-17T06:13:02.893Z,20.11
2016-06-17T06:14:02.913Z,20.26
2016-06-17T06:15:02.822Z,20.25
2016-06-17T06:16:02.857Z,20.25
2016-06-17T06:17:02.939Z,20.2
2016-06-17T06:18:03.051Z,20.23
2016-06-17T06:19:02.946Z,20.29
2016-06-17T06:20:02.840Z,20.26
2016-06-17T06:21:02.952Z,20.3
2016-06-17T06:22:02.910Z,20.29
2016-06-17T06:23:02.959Z,20.26
2016-06-17T06:24:02.994Z,20.29
2016-06-17T06:25:02.857Z,20.26
2016-06-17T06:26:02.970Z,20.23
2016-06-17T06:27:02.974Z,20.25
2016-06-17T06:28:02.899Z,20.26
2016-06-17T06:29:03.184Z,20.23
2016-06-17T06:30:03.004Z,20.25
2016-06-17T06:31:02.920Z,20.23
2016-06-17T06:32:02.974Z,20.16
2016-06-17T06:33:02.968Z,20.16
2016-06-17T06:34:02.929Z,20.15
2016-06-17T06:35:03.153Z,20.18
2016-06-17T06:36:03.064Z,20.18
2016-06-17T06:37:02.960Z,20.16
2016-06-17T06:38:03.042Z,20.2
2016-06-17T06:39:03.001Z,20.15
2016-06-17T06:40:03.052Z,20.16
2016-06-17T06:41:02.994Z,20.12
2016-06-17T06:42:02.982Z,20.22
2016-06-17T06:43:02.955Z,20.19
2016-06-17T06:44:02.975Z,20.26
2016-06-17T06:45:03.025Z,20.27
2016-06-17T06:46:02.951Z,20.2
2016-06-17T06:47:02.969Z,20.27
2016-06-17T06:48:03.098Z,20.23
2016-06-17T06:49:02.976Z,20.29
2016-06-17T06:50:02.979Z,20.23
2016-06-17T06:51:02.983Z,20.23
2016-06-17T06:52:03.080Z,20.29
2016-06-17T06:53:03.068Z,20.3
2016-06-17T06:54:02.994Z,20.25
2016-06-17T06:55:03.138Z,20.3
2016-06-17T06:56:03.126Z,20.27
2016-06-17T06:57:03.081Z,20.2
2016-06-17T06:58:03.039Z,20.3
2016-06-17T06:59:03.121Z,20.3
2016-06-17T07:00:03.108Z,20.26
2016-06-17T07:01:03.003Z,20.27
2016-06-17T07:02:03.053Z,20.32
2016-06-17T07:03:02.993Z,20.27
2016-06-17T07:04:03.059Z,20.27
2016-06-17T07:05:03.109Z,20.38
2016-06-17T07:06:02.988Z,20.26
2016-06-17T07:07:03.039Z,20.25
2016-06-17T07:08:03.135Z,20.26
2016-06-17T07:09:02.998Z,20.3
2016-06-17T07:10:03.048Z,20.3
2016-06-17T07:11:03.052Z,20.26
2016-06-17T07:12:03.009Z,20.27
2016-06-17T07:13:03.059Z,20.27
2016-06-17T07:14:03.095Z,20.2
2016-06-17T07:15:03.004Z,20.15
2016-06-17T07:16:03.179Z,20.18
2016-06-17T07:17:03.214Z,20.2
2016-06-17T07:18:03.249Z,20.26
2016-06-17T07:19:03.142Z,20.23
2016-06-17T07:20:03.116Z,20.2
2016-06-17T07:21:03.008Z,20.3
2016-06-17T07:22:03.215Z,20.22
2016-06-17T07:23:03.063Z,20.26
2016-06-17T07:24:03.083Z,20.27
2016-06-17T07:25:03.133Z,20.22
2016-06-17T07:26:03.120Z,20.25
2016-06-17T07:27:03.029Z,20.25
2016-06-17T07:28:03.143Z,20.26
2016-06-17T07:29:03.443Z,20.25
2016-06-17T07:30:03.586Z,20.27
2016-06-17T07:31:03.435Z,20.25
2016-06-17T07:32:03.812Z,20.29
2016-06-17T07:33:03.081Z,20.27
2016-06-17T07:34:03.195Z,20.29
2016-06-17T07:35:03.605Z,20.29
2016-06-17T07:36:03.124Z,20.23
2016-06-17T07:37:03.252Z,20.3
2016-06-17T07:38:03.114Z,20.32
2016-06-17T07:39:03.399Z,20.34
2016-06-17T07:40:03.105Z,20.38
2016-06-17T07:41:03.109Z,20.38
2016-06-17T07:42:03.113Z,20.27
2016-06-17T07:43:03.084Z,20.38
2016-06-17T07:44:03.198Z,20.42
2016-06-17T07:45:03.108Z,20.38
2016-06-17T07:46:03.158Z,20.46
2016-06-17T07:47:03.177Z,20.4
2016-06-17T07:48:03.149Z,20.53
2016-06-17T07:49:03.122Z,20.51
2016-06-17T07:50:03.078Z,20.58
2016-06-17T07:51:03.237Z,20.46
2016-06-17T07:52:03.147Z,20.51
2016-06-17T07:53:03.198Z,20.46
2016-06-17T07:54:03.123Z,20.54
2016-06-17T07:55:03.204Z,20.56
2016-06-17T07:56:03.130Z,20.63
2016-06-17T07:57:03.086Z,20.57
2016-06-17T07:58:03.184Z,20.66
2016-06-17T07:59:03.125Z,20.63
2016-06-17T08:00:03.191Z,20.66
2016-06-17T08:05:03.271Z,20.66
2016-06-17T08:06:03.353Z,20.78
2016-06-17T08:07:03.231Z,20.67
2016-06-17T08:08:03.281Z,20.74
2016-06-17T08:09:03.145Z,20.64
2016-06-17T08:10:03.288Z,20.74
2016-06-17T08:11:03.198Z,20.71
2016-06-17T08:12:03.249Z,20.72
2016-06-17T08:13:03.064Z,20.67
2016-06-17T08:14:03.240Z,20.72
2016-06-17T08:15:03.196Z,20.64
2016-06-17T08:16:03.293Z,20.66
2016-06-17T08:17:03.125Z,20.66
2016-06-17T08:18:03.316Z,20.71
2016-06-17T08:19:03.133Z,20.71
2016-06-17T08:20:03.151Z,20.66
2016-06-17T08:21:03.279Z,20.66
2016-06-17T08:22:03.330Z,20.61
2016-06-17T08:23:03.208Z,20.71
2016-06-17T08:24:03.259Z,20.67
2016-06-17T08:25:03.246Z,20.71
2016-06-17T08:26:03.344Z,20.61
2016-06-17T08:27:03.363Z,20.66
2016-06-17T08:28:03.210Z,20.58
2016-06-17T08:29:03.182Z,20.68
2016-06-17T08:30:03.296Z,20.66
2016-06-17T08:31:03.377Z,20.68
2016-06-17T08:32:03.287Z,20.63
2016-06-17T08:33:03.307Z,20.6
2016-06-17T08:34:03.310Z,20.67
2016-06-17T08:35:03.235Z,20.71
2016-06-17T08:36:03.300Z,20.66
2016-06-17T08:37:03.241Z,20.66
2016-06-17T08:38:03.386Z,20.63
2016-06-17T08:39:03.280Z,20.67
2016-06-17T08:40:04.659Z,20.64
2016-06-17T08:41:03.318Z,20.64
2016-06-17T08:42:03.227Z,20.71
2016-06-17T08:43:03.325Z,20.68
2016-06-17T08:44:03.265Z,20.64
2016-06-17T08:45:06.176Z,20.64
2016-06-17T08:46:06.304Z,20.67
2016-06-17T08:47:06.262Z,20.71
2016-06-17T08:48:06.280Z,20.75
2016-06-17T08:49:06.394Z,20.71
2016-06-17T08:50:06.287Z,20.75
2016-06-17T08:51:06.260Z,20.72
2016-06-17T08:52:06.264Z,20.66
2016-06-17T08:53:06.217Z,20.74
2016-06-17T08:54:06.268Z,20.76
2016-06-17T08:55:06.270Z,20.71
2016-06-17T08:56:06.462Z,20.78
2016-06-17T08:57:06.309Z,20.79
2016-06-17T08:58:06.375Z,20.81
2016-06-17T08:59:06.271Z,20.82
2016-06-17T09:00:06.319Z,20.78
2016-06-17T09:01:06.198Z,20.76
2016-06-17T09:02:06.311Z,20.79
2016-06-17T09:03:06.268Z,20.78
2016-06-17T09:04:06.241Z,20.78
2016-06-17T09:05:06.337Z,20.75
2016-06-17T09:06:06.279Z,20.83
2016-06-17T09:07:06.344Z,20.71
2016-06-17T09:08:06.238Z,20.78
2016-06-17T09:09:06.242Z,20.78
2016-06-17T09:16:06.611Z,20.67
2016-06-17T09:17:06.349Z,20.72
2016-06-17T09:24:03.363Z,20.72
2016-06-17T09:25:03.491Z,20.72
2016-06-17T09:26:03.542Z,20.76
2016-06-17T09:27:03.405Z,20.74
2016-06-17T09:28:03.283Z,20.68
2016-06-17T09:29:03.490Z,20.81
2016-06-17T09:30:03.462Z,20.85
2016-06-17T09:31:03.387Z,20.85
2016-06-17T09:32:03.422Z,20.76
2016-06-17T09:33:03.395Z,20.86
2016-06-17T09:34:03.460Z,20.88
2016-06-17T09:35:03.464Z,20.91
2016-06-17T09:36:03.342Z,20.97
2016-06-17T09:37:03.439Z,20.91
2016-06-17T09:38:03.381Z,20.93
2016-06-17T09:39:03.447Z,20.91
2016-06-17T09:40:03.560Z,20.96
2016-06-17T09:41:03.450Z,20.97
2016-06-17T09:42:03.565Z,21.01
2016-06-17T09:43:03.428Z,21.12
2016-06-17T09:44:03.433Z,21.09
2016-06-17T09:45:03.391Z,21.08
2016-06-17T09:46:03.490Z,21.06
2016-06-17T09:47:03.478Z,21.09
2016-06-17T09:48:03.451Z,21.11
2016-06-17T09:49:03.454Z,21.11
2016-06-17T09:50:03.459Z,21.11
2016-06-17T09:51:03.509Z,21.13
2016-06-17T09:52:04.513Z,21.13
2016-06-17T09:53:03.438Z,21.15
2016-06-17T09:54:03.504Z,21.21
2016-06-17T09:55:03.507Z,21.19
2016-06-17T09:56:03.511Z,21.21
2016-06-17T09:57:03.514Z,21.16
2016-06-17T09:58:03.455Z,21.18
2016-06-17T09:59:03.540Z,21.27
2016-06-17T10:00:03.452Z,21.3
2016-06-17T10:01:03.535Z,21.3
2016-06-17T10:02:03.527Z,21.23
2016-06-17T10:03:03.547Z,21.23
2016-06-17T10:04:03.412Z,21.28
2016-06-17T10:05:03.510Z,21.31
2016-06-17T10:06:03.561Z,21.28
2016-06-17T10:07:03.971Z,21.34
2016-06-17T10:08:03.475Z,21.25
2016-06-17T10:09:03.478Z,21.36
2016-06-17T10:10:03.530Z,21.3
2016-06-17T10:11:03.519Z,21.33
2016-06-17T10:12:03.538Z,21.36
2016-06-17T10:13:03.588Z,21.3
2016-06-17T10:14:03.483Z,21.3
2016-06-17T10:15:03.689Z,21.3
2016-06-17T10:16:03.585Z,21.27
2016-06-17T10:17:03.557Z,21.36
2016-06-17T10:18:03.499Z,21.36
2016-06-17T10:19:03.690Z,21.34
2016-06-17T10:20:03.585Z,21.34
2016-06-17T10:21:03.464Z,21.3
2016-06-17T10:22:03.484Z,21.36
2016-06-17T10:23:03.581Z,21.38
2016-06-17T10:24:03.523Z,21.4
2016-06-17T10:25:03.542Z,21.34
2016-06-17T10:26:03.561Z,21.38
2016-06-17T10:27:03.580Z,21.36
2016-06-17T10:28:03.584Z,21.4
2016-06-17T10:29:03.650Z,21.28
2016-06-17T10:30:03.513Z,21.25
2016-06-17T10:31:03.594Z,21.27
2016-06-17T10:32:03.598Z,21.33
2016-06-17T10:33:03.569Z,21.3
2016-06-17T10:34:03.635Z,21.28
2016-06-17T10:35:03.576Z,21.3
2016-06-17T10:36:03.737Z,21.3
2016-06-17T10:41:19.426Z,21.25
2016-06-17T10:41:35.757Z,21.28
2016-06-17T10:42:35.761Z,21.25
2016-06-17T10:43:35.780Z,21.19
2016-06-17T10:44:35.674Z,21.37
2016-06-17T10:45:35.708Z,21.27
2016-06-17T10:46:35.728Z,21.23
2016-06-17T10:47:35.825Z,21.33
2016-06-17T10:48:35.734Z,21.23
2016-06-17T10:49:35.801Z,21.21
2016-06-17T10:50:36.305Z,21.33
2016-06-17T10:51:35.856Z,21.31
2016-06-17T10:52:35.798Z,21.34
2016-06-17T10:53:35.724Z,21.33
2016-06-17T10:54:35.775Z,21.28
2016-06-17T10:55:35.763Z,21.3
2016-06-17T10:56:35.750Z,21.3
2016-06-17T10:57:35.894Z,21.33
2016-06-17T10:58:35.959Z,21.38
2016-06-17T10:59:35.823Z,21.37
2016-06-17T11:00:35.780Z,21.37
2016-06-17T11:01:35.814Z,21.38
2016-06-17T11:02:35.849Z,21.43
2016-06-17T11:03:35.759Z,21.37
2016-06-17T11:04:35.824Z,21.36
2016-06-17T11:05:35.813Z,21.43
2016-06-17T11:06:35.815Z,21.4
2016-06-17T11:07:35.879Z,21.46
2016-06-17T11:08:35.835Z,21.36
2016-06-17T11:09:36.259Z,21.43
2016-06-17T11:10:36.418Z,21.37
2016-06-17T11:11:36.234Z,21.46
2016-06-17T11:12:36.534Z,21.51
2016-06-17T11:13:36.208Z,21.41
2016-06-17T11:14:36.211Z,21.46
2016-06-17T11:15:36.043Z,21.52
2016-06-17T11:16:35.999Z,21.48
2016-06-17T11:17:35.925Z,21.55
2016-06-17T11:18:36.224Z,21.52
2016-06-17T11:19:36.119Z,21.58
2016-06-17T11:20:36.295Z,21.53
2016-06-17T11:21:36.328Z,21.55
2016-06-17T11:22:36.270Z,21.61
2016-06-17T11:23:35.961Z,21.55
2016-06-17T11:24:35.980Z,21.55
2016-06-17T11:25:35.921Z,21.56
2016-06-17T11:26:36.143Z,21.62
2016-06-17T11:27:35.974Z,21.61
2016-06-17T11:28:36.025Z,21.55
2016-06-17T11:29:36.028Z,21.53
2016-06-17T11:30:35.751Z,21.56
2016-06-17T11:31:36.035Z,21.56
2016-06-17T11:32:36.085Z,21.67
2016-06-17T11:33:36.090Z,21.73
2016-06-17T11:34:36.046Z,21.59
2016-06-17T11:35:36.127Z,21.67
2016-06-17T11:36:36.022Z,21.64
2016-06-17T11:37:35.978Z,21.66
2016-06-17T11:38:36.123Z,21.77
2016-06-17T11:39:36.361Z,21.68
2016-06-17T11:40:36.222Z,21.68
2016-06-17T11:41:36.086Z,21.7
2016-06-17T11:42:36.510Z,21.77
2016-06-17T11:43:36.044Z,21.66
2016-06-17T11:44:36.188Z,21.73
2016-06-17T11:45:36.145Z,21.77
2016-06-17T11:46:36.241Z,21.7
2016-06-17T11:47:36.384Z,21.7
2016-06-17T11:48:36.169Z,21.78
2016-06-17T11:49:36.344Z,21.66
2016-06-17T11:50:36.269Z,21.77
2016-06-17T11:51:36.273Z,21.85
2016-06-17T11:52:36.698Z,21.78
2016-06-17T11:53:36.404Z,21.82
2016-06-17T11:54:36.205Z,21.86
2016-06-17T11:55:36.240Z,21.83
2016-06-17T11:56:36.165Z,21.83
2016-06-17T11:57:36.278Z,21.86
2016-06-17T11:58:36.438Z,21.83
2016-06-17T11:59:36.378Z,21.83
2016-06-17T12:00:36.398Z,21.83
2016-06-17T12:01:36.041Z,21.86
2016-06-17T12:02:36.358Z,21.96
2016-06-17T12:03:37.206Z,21.94
2016-06-17T12:04:36.052Z,21.99
2016-06-17T12:05:36.337Z,21.96
2016-06-17T12:06:36.669Z,21.94
2016-06-17T12:07:36.344Z,21.9
2016-06-17T12:08:36.207Z,21.96
2016-06-17T12:09:36.319Z,21.94
2016-06-17T12:10:41.011Z,21.96
2016-06-17T12:11:36.529Z,21.97
2016-06-17T12:12:36.329Z,22.04
2016-06-17T12:13:36.333Z,22.04
2016-06-17T12:14:38.697Z,22.02
2016-06-17T12:15:36.344Z,22.08
2016-06-17T12:16:37.178Z,22.02
2016-06-17T12:17:36.138Z,22.05
2016-06-17T12:18:36.723Z,22.07
2016-06-17T12:19:36.758Z,22.11
2016-06-17T12:20:36.170Z,22
2016-06-17T12:21:36.659Z,22.16
2016-06-17T12:22:36.335Z,22.16
2016-06-17T12:23:36.761Z,22.12
2016-06-17T12:24:36.890Z,22.15
2016-06-17T12:25:36.472Z,22.2
2016-06-17T12:26:37.570Z,22.24
2016-06-17T12:27:36.840Z,22.14
2016-06-17T12:28:36.750Z,22.16
2016-06-17T12:29:37.207Z,22.22
2016-06-17T12:30:37.366Z,22.2
2016-06-17T12:31:36.152Z,22.16
2016-06-17T12:32:36.622Z,22.2
2016-06-17T12:33:36.298Z,22.24
2016-06-17T12:34:36.662Z,22.23
2016-06-17T12:35:36.352Z,22.24
2016-06-17T12:36:36.294Z,22.26
2016-06-17T12:37:36.969Z,22.24
2016-06-17T12:38:37.503Z,22.33
2016-06-17T12:39:36.413Z,22.34
2016-06-17T12:40:36.323Z,22.26
2016-06-17T12:41:36.061Z,22.33
2016-06-17T12:42:36.939Z,22.39
2016-06-17T12:43:36.630Z,22.27
2016-06-17T12:44:36.633Z,22.27
2016-06-17T12:45:36.543Z,22.33
2016-06-17T12:46:37.000Z,22.41
2016-06-17T12:47:36.878Z,22.39
2016-06-17T12:48:36.366Z,22.33
2016-06-17T12:49:36.073Z,22.34
2016-06-17T12:50:36.107Z,22.46
2016-06-17T12:51:36.096Z,22.29
2016-06-17T12:52:35.849Z,22.39
2016-06-17T12:53:36.165Z,22.44
2016-06-17T12:54:36.278Z,22.44
2016-06-17T12:55:36.062Z,22.38
2016-06-17T12:56:36.066Z,22.36
2016-06-17T12:57:36.147Z,22.38
2016-06-17T12:58:36.104Z,22.31
2016-06-17T12:59:36.123Z,22.42
2016-06-17T13:00:36.048Z,22.39
2016-06-17T13:01:36.114Z,22.36
2016-06-17T13:02:37.477Z,22.38
2016-06-17T13:03:36.105Z,22.36
2016-06-17T13:04:36.203Z,22.27
2016-06-17T13:05:36.097Z,22.36
2016-06-17T13:06:36.115Z,22.23
2016-06-17T13:07:36.103Z,22.2
2016-06-17T13:08:36.107Z,22.34
2016-06-17T13:09:37.064Z,22.3
2016-06-17T13:10:36.083Z,22.29
2016-06-17T13:11:36.118Z,22.42
2016-06-17T13:12:36.183Z,22.36
2016-06-17T13:13:36.125Z,22.36
2016-06-17T13:14:36.097Z,22.33